Time;durP1;ratioP1;P1;durP2;ratioP2;P2;SDS_P1;SDS_P2;PMS_P1;PMS_P2;Temp;Humidity;BMP_temperature;BMP_pressure;BME280_temperature;BME280_humidity;BME280_pressure;Samples;Min_cycle;Max_cycle;Signal;HPM_P1;HPM_P2
2022/12/05 00:01:23;;;;;;;5.00;1.42;;;28.50;99.90;;;;;;5019394;28;20279;-81
2022/12/05 00:03:56;;;;;;;3.45;0.90;;;28.60;99.90;;;;;;5016875;28;20197;-81
2022/12/05 00:06:30;;;;;;;5.95;1.10;;;28.70;99.90;;;;;;5015365;28;20285;-81
2022/12/05 00:09:02;;;;;;;5.03;1.10;;;28.80;99.90;;;;;;5017286;28;20210;-81
2022/12/05 00:11:34;;;;;;;4.70;1.70;;;29.00;99.90;;;;;;5014100;28;20241;-80
2022/12/05 00:14:05;;;;;;;3.85;1.10;;;29.20;99.90;;;;;;5013099;28;20203;-82
2022/12/05 00:16:37;;;;;;;3.85;1.27;;;29.10;99.90;;;;;;5015096;28;20194;-83
2022/12/05 00:19:09;;;;;;;5.30;1.40;;;29.10;99.90;;;;;;5013222;28;20195;-81
2022/12/05 00:21:42;;;;;;;6.00;1.50;;;29.00;99.90;;;;;;5010724;28;20201;-83
2022/12/05 00:24:15;;;;;;;6.03;1.40;;;29.10;99.90;;;;;;5012276;28;20249;-83
2022/12/05 00:26:46;;;;;;;6.32;1.33;;;29.10;99.90;;;;;;5014147;28;20203;-81
2022/12/05 00:29:18;;;;;;;2.92;0.90;;;29.40;99.90;;;;;;5013807;28;20199;-82
2022/12/05 00:31:48;;;;;;;5.72;1.10;;;29.50;99.90;;;;;;5011222;28;20219;-82
2022/12/05 00:34:19;;;;;;;7.25;1.25;;;29.60;99.90;;;;;;5007729;28;20202;-83
2022/12/05 00:36:52;;;;;;;4.47;1.15;;;29.30;99.90;;;;;;5017483;28;20194;-82
2022/12/05 00:39:23;;;;;;;3.78;1.20;;;29.30;99.90;;;;;;5006953;28;20241;-84
2022/12/05 00:41:54;;;;;;;3.03;1.27;;;29.10;99.90;;;;;;5013010;28;20217;-81
2022/12/05 00:44:24;;;;;;;4.40;1.02;;;29.10;99.90;;;;;;5015887;28;20202;-79
2022/12/05 00:46:55;;;;;;;4.13;1.20;;;29.20;99.90;;;;;;5019738;28;20206;-81
2022/12/05 00:49:26;;;;;;;5.68;1.10;;;29.30;99.90;;;;;;5015162;28;20195;-81
2022/12/05 00:51:58;;;;;;;6.15;1.08;;;29.30;99.90;;;;;;5014147;28;20206;-82
2022/12/05 00:54:29;;;;;;;6.07;1.10;;;29.40;99.90;;;;;;5019044;28;20206;-78
2022/12/05 00:57:00;;;;;;;5.13;1.25;;;29.40;99.90;;;;;;5018695;28;20195;-84
2022/12/05 00:59:31;;;;;;;5.75;1.30;;;29.50;99.90;;;;;;5020217;28;20201;-82
2022/12/05 01:02:02;;;;;;;5.32;1.30;;;29.50;99.90;;;;;;5017612;28;20202;-78
2022/12/05 01:04:32;;;;;;;7.07;1.40;;;29.60;99.90;;;;;;5017111;28;20628;-83
2022/12/05 01:07:05;;;;;;;5.43;1.40;;;29.60;99.90;;;;;;5020442;28;20769;-81
2022/12/05 01:09:36;;;;;;;7.88;1.20;;;29.40;99.90;;;;;;5011422;28;20825;-79
2022/12/05 01:12:07;;;;;;;5.18;1.50;;;29.60;99.90;;;;;;5010489;28;20214;-80
2022/12/05 01:14:37;;;;;;;5.97;1.08;;;29.60;99.90;;;;;;5016692;28;21139;-80
2022/12/05 01:17:08;;;;;;;8.50;1.70;;;29.60;99.90;;;;;;5012767;28;20661;-80
2022/12/05 01:19:39;;;;;;;5.70;1.13;;;29.80;99.90;;;;;;5017863;28;20297;-80
2022/12/05 01:22:12;;;;;;;4.00;1.30;;;29.80;99.90;;;;;;5018397;28;20203;-79
2022/12/05 01:24:42;;;;;;;4.15;1.15;;;29.80;99.90;;;;;;5021162;28;20195;-81
2022/12/05 01:27:13;;;;;;;5.22;1.40;;;29.90;99.90;;;;;;5022594;28;20209;-80
2022/12/05 01:29:44;;;;;;;6.30;1.33;;;29.90;99.90;;;;;;5026530;28;20224;-77
2022/12/05 01:32:15;;;;;;;4.95;1.30;;;30.00;99.90;;;;;;5016431;28;20257;-81
2022/12/05 01:34:46;;;;;;;5.53;1.48;;;30.10;99.90;;;;;;5016831;28;20666;-81
2022/12/05 01:37:19;;;;;;;7.50;1.40;;;30.20;99.90;;;;;;5019483;28;20603;-82
2022/12/05 01:39:51;;;;;;;6.88;1.27;;;30.30;99.90;;;;;;5021112;28;20198;-80
2022/12/05 01:42:23;;;;;;;4.80;1.40;;;30.40;99.90;;;;;;5019961;28;20293;-78
2022/12/05 05:21:38;;;;;;;6.60;1.70;;;26.60;99.90;;;;;;5080864;27;20583;-79
2022/12/05 05:24:10;;;;;;;9.18;1.80;;;25.90;99.90;;;;;;5082208;28;20298;-79
2022/12/05 05:26:43;;;;;;;5.72;1.60;;;25.40;99.90;;;;;;5083728;28;20278;-77
2022/12/05 05:29:15;;;;;;;11.80;1.90;;;25.10;99.90;;;;;;5082953;28;20283;-78
2022/12/05 05:31:46;;;;;;;11.27;3.13;;;25.00;99.90;;;;;;5083636;28;20200;-79
2022/12/05 05:34:17;;;;;;;15.38;4.10;;;24.90;99.90;;;;;;5086291;28;20196;-80
2022/12/05 05:36:54;;;;;;;12.10;3.45;;;25.10;99.90;;;;;;5085250;28;20279;-79
2022/12/05 05:39:27;;;;;;;8.45;2.45;;;25.20;99.90;;;;;;5087737;28;20650;-78
2022/12/05 05:41:57;;;;;;;6.45;1.98;;;25.40;99.90;;;;;;5084448;28;20287;-80
2022/12/05 05:44:29;;;;;;;9.32;1.73;;;25.40;99.90;;;;;;5089907;28;20306;-79
2022/12/05 05:47:00;;;;;;;7.22;1.50;;;25.50;99.90;;;;;;5086608;28;20275;-79
2022/12/05 05:49:30;;;;;;;4.00;1.40;;;25.70;99.90;;;;;;5081115;28;20192;-79
2022/12/05 05:52:03;;;;;;;4.95;1.80;;;26.00;99.90;;;;;;5083291;28;20212;-79
2022/12/05 05:54:34;;;;;;;8.00;2.25;;;26.30;99.90;;;;;;5086363;28;20283;-80
2022/12/05 05:57:05;;;;;;;4.55;1.40;;;26.50;99.90;;;;;;5080117;28;20235;-81
2022/12/05 05:59:36;;;;;;;6.45;1.42;;;26.60;99.90;;;;;;5087956;28;20228;-79
2022/12/05 06:02:07;;;;;;;2.70;1.00;;;26.70;99.90;;;;;;5086594;28;20728;-79
2022/12/05 06:04:38;;;;;;;2.97;1.30;;;26.60;99.90;;;;;;5087423;28;20644;-78
2022/12/05 06:07:11;;;;;;;3.25;1.42;;;26.50;99.90;;;;;;5084271;28;20189;-79
2022/12/05 06:09:42;;;;;;;6.40;1.70;;;26.50;99.90;;;;;;5084290;28;20245;-79
2022/12/05 06:12:13;;;;;;;6.72;2.08;;;26.40;99.90;;;;;;5080569;28;20280;-77
2022/12/05 06:14:43;;;;;;;4.18;2.08;;;26.30;99.90;;;;;;5080447;28;20197;-79
2022/12/05 06:17:14;;;;;;;11.38;3.40;;;26.20;99.90;;;;;;5083204;28;20231;-78
2022/12/05 06:19:45;;;;;;;17.90;6.60;;;26.30;99.90;;;;;;5088022;28;20234;-76
2022/12/05 06:22:18;;;;;;;25.98;9.27;;;26.30;99.90;;;;;;5076521;28;20196;-81
2022/12/05 06:24:49;;;;;;;21.70;8.30;;;26.30;99.90;;;;;;5075377;28;20621;-79
2022/12/05 06:27:20;;;;;;;18.55;6.35;;;26.30;99.90;;;;;;5080398;28;20283;-78
2022/12/05 06:29:51;;;;;;;9.15;2.65;;;26.50;99.90;;;;;;5087035;28;20648;-79
2022/12/05 06:32:22;;;;;;;5.10;1.80;;;26.40;99.90;;;;;;5066205;28;20299;-81
2022/12/05 06:34:53;;;;;;;4.30;1.52;;;26.40;99.90;;;;;;5075014;28;20197;-79
2022/12/05 06:37:26;;;;;;;4.95;1.50;;;26.30;99.90;;;;;;5070784;28;20224;-80
2022/12/05 06:39:57;;;;;;;3.30;1.48;;;26.20;99.90;;;;;;5067207;28;20696;-80
2022/12/05 06:42:27;;;;;;;4.63;1.33;;;26.00;99.90;;;;;;5069141;28;20192;-80
2022/12/05 06:44:58;;;;;;;5.72;1.40;;;25.90;99.90;;;;;;5066826;28;20563;-79
2022/12/05 06:47:29;;;;;;;4.63;1.30;;;25.90;99.90;;;;;;5061084;28;20205;-79
2022/12/05 06:50:00;;;;;;;6.45;1.40;;;25.90;99.90;;;;;;5064120;28;20216;-80
2022/12/05 06:52:33;;;;;;;4.93;1.52;;;25.80;99.90;;;;;;5070578;28;20189;-78
2022/12/05 06:55:03;;;;;;;4.00;1.48;;;25.70;99.90;;;;;;5068950;28;20189;-78
2022/12/05 06:57:34;;;;;;;3.53;1.42;;;25.60;99.90;;;;;;5063433;28;20288;-77
2022/12/05 07:02:54;;;;;;;7.40;1.60;;;25.40;99.90;;;;;;5060307;28;20238;-78
2022/12/05 07:05:24;;;;;;;4.57;1.63;;;25.30;99.90;;;;;;5062147;28;20193;-76
2022/12/05 07:07:57;;;;;;;7.97;1.65;;;25.30;99.90;;;;;;5073505;28;20636;-76
2022/12/05 07:10:28;;;;;;;5.72;1.40;;;25.30;99.90;;;;;;5068275;28;20194;-79
2022/12/05 07:12:59;;;;;;;5.30;1.45;;;25.30;99.90;;;;;;5070969;28;20668;-76
2022/12/05 07:15:29;;;;;;;4.18;1.60;;;25.30;99.90;;;;;;5065651;28;20353;-77
2022/12/05 07:18:00;;;;;;;10.05;2.55;;;25.30;99.90;;;;;;5064095;28;20189;-79
2022/12/05 07:20:31;;;;;;;16.40;4.35;;;25.30;99.90;;;;;;5064260;28;20228;-77
2022/12/05 07:23:04;;;;;;;19.10;4.53;;;25.20;99.90;;;;;;5063937;28;20970;-75
2022/12/05 07:25:35;;;;;;;20.65;5.13;;;25.20;99.90;;;;;;5065447;28;20245;-78
2022/12/05 07:28:06;;;;;;;19.85;4.60;;;25.20;99.90;;;;;;5071851;28;20288;-76
2022/12/05 07:30:37;;;;;;;21.77;5.43;;;25.20;99.90;;;;;;5066533;28;20201;-78
2022/12/05 07:33:08;;;;;;;24.40;6.03;;;25.10;99.90;;;;;;5070220;28;20197;-78
2022/12/05 07:35:39;;;;;;;25.15;6.95;;;25.00;99.90;;;;;;5069197;28;20200;-79
2022/12/05 07:38:12;;;;;;;30.27;7.10;;;24.90;99.90;;;;;;5064815;28;20288;-78
2022/12/05 07:40:43;;;;;;;20.50;5.18;;;24.90;99.90;;;;;;5073533;28;20295;-77
2022/12/05 07:43:14;;;;;;;20.58;5.28;;;24.90;99.90;;;;;;5069733;28;20197;-79
2022/12/05 07:45:45;;;;;;;23.42;5.53;;;24.90;99.90;;;;;;5070825;28;20236;-79
2022/12/05 07:48:15;;;;;;;24.83;5.45;;;24.80;99.90;;;;;;5066188;28;20288;-78
2022/12/05 07:50:46;;;;;;;21.13;5.85;;;24.90;99.90;;;;;;5067315;28;20233;-78
2022/12/05 07:53:19;;;;;;;37.90;10.73;;;24.90;99.90;;;;;;5066407;28;20189;-77
2022/12/05 07:55:50;;;;;;;44.60;14.25;;;24.90;99.90;;;;;;5072767;28;20185;-77
2022/12/05 07:58:21;;;;;;;44.53;14.32;;;24.90;99.90;;;;;;5072977;28;20229;-79
2022/12/05 08:00:52;;;;;;;41.70;12.90;;;24.90;99.90;;;;;;5065011;28;20340;-79
2022/12/05 08:03:23;;;;;;;34.53;11.70;;;24.80;99.90;;;;;;5068014;28;20640;-78
2022/12/05 08:05:54;;;;;;;31.75;8.38;;;24.90;99.90;;;;;;5066934;28;20215;-79
2022/12/05 08:08:27;;;;;;;6.57;2.33;;;24.90;99.90;;;;;;5061850;28;20623;-82
2022/12/05 08:10:58;;;;;;;6.65;1.90;;;25.00;99.90;;;;;;5067042;28;20202;-80
2022/12/05 08:13:30;;;;;;;6.72;1.70;;;24.90;99.90;;;;;;5067887;28;20200;-80
2022/12/05 08:16:04;;;;;;;5.50;1.88;;;24.80;99.90;;;;;;5065352;28;20204;-82
2022/12/05 08:18:35;;;;;;;6.47;1.90;;;24.80;99.90;;;;;;5070471;28;20250;-79
2022/12/05 08:21:06;;;;;;;7.38;1.88;;;24.70;99.90;;;;;;5067992;28;20322;-80
2022/12/05 08:23:39;;;;;;;4.28;1.77;;;24.60;99.90;;;;;;5062709;28;20204;-82
2022/12/05 08:26:12;;;;;;;7.18;2.22;;;24.40;99.90;;;;;;5068841;28;20271;-80
2022/12/05 08:28:43;;;;;;;5.68;2.08;;;24.20;99.90;;;;;;5071496;28;20215;-81
2022/12/05 08:31:16;;;;;;;12.52;2.30;;;24.10;99.90;;;;;;5069102;28;20201;-80
2022/12/05 08:33:47;;;;;;;12.20;2.90;;;23.90;99.90;;;;;;5062639;28;20212;-83
2022/12/05 08:36:19;;;;;;;12.85;2.60;;;23.70;99.90;;;;;;5068698;28;20193;-81
2022/12/05 08:38:51;;;;;;;12.30;2.80;;;23.60;99.90;;;;;;5069037;28;20189;-81
2022/12/05 08:41:22;;;;;;;11.55;2.90;;;23.40;99.90;;;;;;5070076;28;20208;-81
2022/12/05 08:43:53;;;;;;;13.05;3.25;;;23.40;99.90;;;;;;5067306;28;20193;-79
2022/12/05 08:46:24;;;;;;;10.55;2.53;;;23.30;99.90;;;;;;5068029;28;20280;-82
2022/12/05 08:48:55;;;;;;;13.02;2.67;;;23.30;99.90;;;;;;5066576;28;20189;-79
2022/12/05 08:51:25;;;;;;;15.18;2.83;;;23.30;99.90;;;;;;5068216;28;20198;-80
2022/12/05 08:53:58;;;;;;;13.80;3.10;;;23.30;99.90;;;;;;5068518;28;20211;-78
2022/12/05 08:56:29;;;;;;;10.63;2.50;;;23.20;99.90;;;;;;5067500;28;20561;-82
2022/12/05 08:59:00;;;;;;;16.55;2.72;;;23.20;99.90;;;;;;5070349;28;20296;-79
2022/12/05 09:01:32;;;;;;;11.00;2.38;;;23.10;99.90;;;;;;5067967;28;20220;-84
2022/12/05 09:04:04;;;;;;;7.13;2.10;;;23.10;99.90;;;;;;5070501;28;20254;-80
2022/12/05 09:06:38;;;;;;;10.70;2.30;;;23.00;99.90;;;;;;5066361;28;20288;-80
2022/12/05 09:09:12;;;;;;;10.45;2.50;;;22.90;99.90;;;;;;5068635;28;20272;-79
2022/12/05 09:11:49;;;;;;;12.15;2.35;;;22.90;99.90;;;;;;5066664;28;20203;-82
2022/12/05 09:14:20;;;;;;;8.35;2.10;;;22.90;99.90;;;;;;5070748;28;20200;-83
2022/12/05 09:16:51;;;;;;;6.72;2.10;;;22.80;99.90;;;;;;5068335;28;20185;-80
2022/12/05 09:19:24;;;;;;;8.63;2.35;;;22.90;99.90;;;;;;5065322;28;20558;-83
2022/12/05 09:21:55;;;;;;;8.15;2.00;;;22.90;99.90;;;;;;5062126;28;20248;-82
2022/12/05 09:24:28;;;;;;;9.93;2.50;;;22.90;99.90;;;;;;5068275;28;20201;-83
2022/12/05 09:26:59;;;;;;;6.13;1.90;;;22.90;99.90;;;;;;5059519;28;20206;-78
2022/12/05 09:29:32;;;;;;;4.85;1.90;;;22.90;99.90;;;;;;5064889;28;20201;-81
2022/12/05 09:32:03;;;;;;;9.40;2.33;;;23.00;99.90;;;;;;5069049;28;20193;-82
2022/12/05 09:34:34;;;;;;;8.23;2.20;;;23.00;99.90;;;;;;5063869;28;20664;-79
2022/12/05 09:37:05;;;;;;;10.25;2.53;;;23.10;99.90;;;;;;5066308;28;20199;-80
2022/12/05 09:39:38;;;;;;;16.42;2.65;;;23.20;99.90;;;;;;5059479;28;20207;-79
2022/12/05 09:42:36;;;;;;;11.65;2.70;;;23.10;99.90;;;;;;5065224;28;20212;-80
2022/12/05 09:45:16;;;;;;;9.80;2.45;;;23.10;99.90;;;;;;5058184;28;20206;-85
2022/12/05 09:47:53;;;;;;;12.07;2.90;;;23.00;99.90;;;;;;5064954;28;20193;-81
2022/12/05 09:50:26;;;;;;;21.88;4.20;;;22.80;99.90;;;;;;5067844;28;20240;-84
2022/12/05 09:53:05;;;;;;;14.60;3.83;;;22.30;99.90;;;;;;5064055;28;20196;-85
2022/12/05 09:55:47;;;;;;;13.43;3.53;;;22.00;99.90;;;;;;5063684;28;20664;-80
2022/12/05 09:58:31;;;;;;;12.35;2.72;;;21.80;99.90;;;;;;5066716;28;20656;-86
2022/12/05 10:01:07;;;;;;;10.35;2.40;;;21.60;99.90;;;;;;5069497;28;20227;-79
2022/12/05 10:03:44;;;;;;;9.07;2.38;;;21.50;99.90;;;;;;5067166;28;20561;-81
2022/12/05 10:06:23;;;;;;;8.40;2.40;;;21.40;99.90;;;;;;5068785;28;20270;-82
2022/12/05 10:09:16;;;;;;;14.40;3.38;;;21.40;99.90;;;;;;5067146;28;20194;-81
2022/12/05 10:11:53;;;;;;;10.30;2.90;;;21.30;99.90;;;;;;5067536;28;20200;-77
2022/12/05 10:14:32;;;;;;;11.10;2.60;;;21.40;99.90;;;;;;5070535;28;20209;-82
2022/12/05 10:17:11;;;;;;;8.32;2.70;;;21.40;99.90;;;;;;5066111;28;20229;-82
2022/12/05 10:19:45;;;;;;;12.75;2.72;;;21.40;99.90;;;;;;5068504;28;20236;-82
2022/12/05 10:22:20;;;;;;;9.98;2.83;;;21.30;99.90;;;;;;5073831;28;20211;-81
2022/12/05 10:24:54;;;;;;;8.75;2.55;;;21.40;99.90;;;;;;5072371;28;20196;-77
2022/12/05 10:27:32;;;;;;;9.98;3.22;;;21.30;99.90;;;;;;5072851;28;20197;-80
2022/12/05 10:30:05;;;;;;;10.43;3.13;;;21.30;99.90;;;;;;5074382;28;20221;-78
2022/12/05 10:32:43;;;;;;;14.80;3.58;;;21.40;99.90;;;;;;5072601;28;20196;-79
2022/12/05 10:35:20;;;;;;;11.43;3.38;;;21.40;99.90;;;;;;5072088;28;20375;-80
2022/12/05 10:37:53;;;;;;;14.27;3.22;;;21.50;99.90;;;;;;5071031;28;20686;-81
2022/12/05 10:40:24;;;;;;;12.43;3.70;;;21.40;99.90;;;;;;5068198;28;20601;-80
2022/12/05 10:43:02;;;;;;;12.05;3.40;;;21.40;99.90;;;;;;5069030;28;20227;-78
2022/12/05 10:45:38;;;;;;;11.73;3.25;;;21.40;99.90;;;;;;5068856;28;20193;-74
2022/12/05 10:48:14;;;;;;;11.10;3.10;;;21.30;99.90;;;;;;5068557;28;20192;-75
2022/12/05 10:50:47;;;;;;;15.38;3.30;;;21.30;99.90;;;;;;5065430;28;20250;-80
2022/12/05 10:53:31;;;;;;;14.68;3.30;;;21.20;99.90;;;;;;5074501;28;20185;-76
2022/12/05 10:56:05;;;;;;;12.60;3.05;;;21.20;99.90;;;;;;5070578;28;20601;-77
2022/12/05 10:58:38;;;;;;;10.05;3.05;;;21.10;99.90;;;;;;5072238;28;20184;-78
2022/12/05 11:01:15;;;;;;;11.50;2.78;;;21.10;99.90;;;;;;5071883;28;20217;-77
2022/12/05 11:03:46;;;;;;;18.15;3.30;;;21.10;99.90;;;;;;5070304;28;20204;-77
2022/12/05 11:06:26;;;;;;;12.80;3.00;;;21.00;99.90;;;;;;5074777;28;20267;-76
2022/12/05 11:09:08;;;;;;;10.02;2.47;;;21.00;99.90;;;;;;5073086;28;20228;-75
2022/12/05 11:18:35;;;;;;;13.60;4.13;;;20.70;99.90;;;;;;5069294;28;20214;-76
2022/12/05 11:24:33;;;;;;;15.05;5.10;;;20.40;99.90;;;;;;5063512;28;20196;-76
2022/12/05 11:27:23;;;;;;;20.67;5.82;;;20.40;99.90;;;;;;5070795;28;20406;-77
2022/12/05 11:30:04;;;;;;;22.55;6.65;;;20.30;99.90;;;;;;5070113;28;20193;-79
2022/12/05 11:32:36;;;;;;;21.63;6.28;;;20.20;99.90;;;;;;5069802;28;20546;-77
2022/12/05 11:35:18;;;;;;;15.98;6.22;;;20.20;99.90;;;;;;5069767;28;20676;-77
2022/12/05 11:37:54;;;;;;;17.23;6.95;;;20.20;99.90;;;;;;5069032;28;20196;-79
2022/12/05 11:40:32;;;;;;;24.20;7.20;;;20.20;99.90;;;;;;5067962;28;20197;-78
2022/12/05 11:43:35;;;;;;;23.92;8.02;;;20.20;99.90;;;;;;5070656;28;20213;-77
2022/12/05 11:46:18;;;;;;;20.85;7.22;;;20.10;99.90;;;;;;5069488;28;20189;-77
2022/12/05 11:49:05;;;;;;;21.80;7.45;;;20.00;99.90;;;;;;5066770;28;20264;-75
2022/12/05 11:51:44;;;;;;;26.63;7.40;;;20.00;99.90;;;;;;5060828;28;20831;-80
2022/12/05 11:54:49;;;;;;;19.88;7.32;;;19.90;99.90;;;;;;5067656;28;20189;-78
2022/12/05 11:57:45;;;;;;;21.52;7.70;;;19.90;99.90;;;;;;5065853;28;20197;-77
2022/12/05 12:00:24;;;;;;;26.92;7.47;;;19.90;99.90;;;;;;5066133;28;20220;-77
2022/12/05 12:03:23;;;;;;;24.35;7.55;;;19.80;99.90;;;;;;5072794;28;20205;-78
2022/12/05 12:06:09;;;;;;;32.65;8.30;;;19.80;99.90;;;;;;5072700;28;20550;-80
2022/12/05 12:08:46;;;;;;;21.95;6.88;;;19.80;99.90;;;;;;5069065;28;20205;-76
2022/12/05 12:11:25;;;;;;;24.40;7.82;;;19.70;99.90;;;;;;5072049;28;20192;-75
2022/12/05 12:14:03;;;;;;;25.83;7.93;;;19.70;99.90;;;;;;5065221;28;20791;-75
2022/12/05 12:16:45;;;;;;;24.45;8.20;;;19.70;99.90;;;;;;5069743;28;20200;-76
2022/12/05 12:19:46;;;;;;;30.48;7.90;;;19.70;99.90;;;;;;5067724;28;20668;-76
2022/12/05 12:22:36;;;;;;;28.27;7.97;;;19.70;99.90;;;;;;5046835;28;20224;-76
2022/12/05 12:25:22;;;;;;;31.35;8.60;;;19.70;99.90;;;;;;5061686;28;20211;-76
2022/12/05 12:28:04;;;;;;;26.85;8.50;;;19.60;99.90;;;;;;5064951;28;20193;-76
2022/12/05 12:30:51;;;;;;;24.15;7.85;;;19.60;99.90;;;;;;5065265;28;20197;-79
2022/12/05 12:33:32;;;;;;;29.27;7.93;;;19.60;99.90;;;;;;5067681;28;20201;-79
2022/12/05 12:36:15;;;;;;;28.20;7.70;;;19.60;99.90;;;;;;5069483;28;20273;-77
2022/12/05 12:39:17;;;;;;;22.70;7.38;;;19.60;99.90;;;;;;5064262;28;20185;-78
2022/12/05 12:42:16;;;;;;;27.55;8.13;;;19.60;99.90;;;;;;5061254;28;20238;-78
2022/12/05 12:45:06;;;;;;;26.88;7.50;;;19.50;99.90;;;;;;5069857;28;20200;-77
2022/12/05 12:47:52;;;;;;;22.20;7.53;;;19.50;99.90;;;;;;5071421;28;20208;-78
2022/12/05 12:50:26;;;;;;;24.98;7.70;;;19.50;99.90;;;;;;5066769;28;20193;-79
2022/12/05 12:53:27;;;;;;;21.67;7.10;;;19.50;99.90;;;;;;5067647;28;20199;-79
2022/12/05 12:56:08;;;;;;;17.15;6.80;;;19.50;99.90;;;;;;5060954;28;20199;-79
2022/12/05 12:58:52;;;;;;;22.38;7.95;;;19.50;99.90;;;;;;5065855;28;20195;-77
2022/12/05 13:01:32;;;;;;;25.15;7.88;;;19.50;99.90;;;;;;5062621;28;20567;-77
2022/12/05 13:04:11;;;;;;;25.02;7.95;;;19.50;99.90;;;;;;5064404;28;20197;-77
2022/12/05 13:06:48;;;;;;;24.02;8.20;;;19.50;99.90;;;;;;5067818;28;20611;-78
2022/12/05 13:09:27;;;;;;;19.63;7.88;;;19.50;99.90;;;;;;5070340;28;20215;-78
2022/12/05 13:12:07;;;;;;;28.15;8.30;;;19.50;99.90;;;;;;5064359;28;20250;-78
2022/12/05 13:14:41;;;;;;;21.80;8.40;;;19.50;99.90;;;;;;5058834;28;20647;-77
2022/12/05 13:17:26;;;;;;;25.30;8.18;;;19.50;99.90;;;;;;5061367;28;20201;-78
2022/12/05 13:19:59;;;;;;;21.73;7.97;;;19.50;99.90;;;;;;5068907;28;20227;-79
2022/12/05 13:22:34;;;;;;;19.98;8.07;;;19.50;99.90;;;;;;5057061;28;20672;-77
2022/12/05 13:25:05;;;;;;;23.70;8.15;;;19.50;99.90;;;;;;5071557;28;20188;-77
2022/12/05 13:27:38;;;;;;;19.20;7.55;;;19.50;99.90;;;;;;5060958;28;20189;-79
2022/12/05 13:30:19;;;;;;;22.30;7.97;;;19.40;99.90;;;;;;5061881;28;20189;-77
2022/12/05 13:32:56;;;;;;;19.10;8.25;;;19.50;99.90;;;;;;5065483;28;20552;-77
2022/12/05 13:44:15;;;;;;;22.42;7.70;;;19.40;99.90;;;;;;5072448;28;20232;-77
2022/12/05 13:46:51;;;;;;;15.85;7.20;;;19.40;99.90;;;;;;5056626;28;20212;-77
2022/12/05 13:49:30;;;;;;;21.08;7.00;;;19.40;99.90;;;;;;5065864;28;20675;-76
2022/12/05 13:52:09;;;;;;;16.83;7.05;;;19.40;99.90;;;;;;5060170;28;20704;-79
2022/12/05 13:54:46;;;;;;;18.33;7.32;;;19.40;99.90;;;;;;5073170;28;20187;-77
2022/12/05 13:57:51;;;;;;;20.35;7.07;;;19.40;99.90;;;;;;5073977;28;20272;-78
2022/12/05 14:00:30;;;;;;;16.45;6.60;;;19.40;99.90;;;;;;5055662;28;20209;-78
2022/12/05 14:03:14;;;;;;;19.23;6.45;;;19.40;99.90;;;;;;5070407;28;20240;-79
2022/12/05 14:05:53;;;;;;;15.52;6.70;;;19.30;99.90;;;;;;5074106;28;20714;-78
2022/12/05 14:08:55;;;;;;;23.08;6.65;;;19.30;99.90;;;;;;5066398;28;20244;-77
2022/12/05 14:11:26;;;;;;;16.00;6.03;;;19.30;99.90;;;;;;5072269;28;20280;-79
2022/12/05 14:13:57;;;;;;;18.63;6.55;;;19.30;99.90;;;;;;5063654;28;20185;-77
2022/12/05 14:16:53;;;;;;;17.90;6.88;;;19.40;99.90;;;;;;5072227;28;20197;-78
2022/12/05 14:19:52;;;;;;;16.67;6.60;;;19.30;99.90;;;;;;5074668;28;20185;-78
2022/12/05 14:22:47;;;;;;;15.80;6.05;;;19.30;99.90;;;;;;5060056;28;20210;-78
2022/12/05 14:25:36;;;;;;;14.68;6.70;;;19.30;99.90;;;;;;5069070;28;20687;-79
2022/12/05 14:28:21;;;;;;;16.85;7.13;;;19.30;99.90;;;;;;5064262;28;20201;-78
2022/12/05 14:31:12;;;;;;;20.33;7.10;;;19.20;99.90;;;;;;5067311;28;20189;-78
2022/12/05 14:33:45;;;;;;;15.20;7.30;;;19.20;99.90;;;;;;5073256;28;20553;-78
2022/12/05 14:36:30;;;;;;;14.18;6.82;;;19.10;99.90;;;;;;5069743;28;20197;-79
2022/12/05 14:39:01;;;;;;;16.58;6.97;;;19.10;99.90;;;;;;5067260;28;20640;-78
2022/12/05 14:41:36;;;;;;;12.07;6.53;;;19.00;99.90;;;;;;5062504;28;20200;-79
2022/12/05 14:44:17;;;;;;;17.05;7.25;;;19.00;99.90;;;;;;5062088;28;20231;-78
2022/12/05 14:46:48;;;;;;;14.60;6.35;;;19.00;99.90;;;;;;5066557;28;20194;-78
2022/12/05 14:49:54;;;;;;;15.80;6.68;;;18.90;99.90;;;;;;5066822;28;20208;-78
2022/12/05 14:52:26;;;;;;;16.00;6.60;;;18.90;99.90;;;;;;5054217;28;20622;-78
2022/12/05 14:55:01;;;;;;;11.45;6.30;;;18.90;99.90;;;;;;5057361;28;20194;-77
2022/12/05 14:57:34;;;;;;;14.93;6.45;;;18.90;99.90;;;;;;5069868;28;20197;-78
2022/12/05 15:00:07;;;;;;;13.13;5.70;;;18.90;99.90;;;;;;5073703;28;20189;-79
2022/12/05 15:02:44;;;;;;;11.68;5.68;;;18.90;99.90;;;;;;5062672;28;20616;-78
2022/12/05 15:05:27;;;;;;;12.68;5.38;;;18.90;99.90;;;;;;5066810;28;20192;-78
2022/12/05 15:08:00;;;;;;;14.30;5.68;;;18.90;99.90;;;;;;5069013;28;20209;-78
2022/12/05 15:10:34;;;;;;;12.90;5.20;;;18.90;99.90;;;;;;5071821;28;20185;-77
2022/12/05 15:13:11;;;;;;;16.70;5.45;;;18.90;99.90;;;;;;5074365;28;20181;-77
2022/12/05 15:15:46;;;;;;;11.98;4.88;;;18.90;99.90;;;;;;5071809;28;20192;-77
2022/12/05 15:18:25;;;;;;;8.90;4.05;;;18.80;99.90;;;;;;5064479;28;20195;-77
2022/12/05 15:21:03;;;;;;;15.02;4.88;;;18.90;99.90;;;;;;5068509;28;20599;-77
2022/12/05 15:23:48;;;;;;;15.75;4.55;;;18.80;99.90;;;;;;5069714;28;20216;-76
2022/12/05 15:26:25;;;;;;;12.80;4.40;;;18.80;99.90;;;;;;5063720;28;20196;-77
2022/12/05 15:29:07;;;;;;;10.43;4.25;;;18.80;99.90;;;;;;5059758;28;20284;-78
2022/12/05 15:31:40;;;;;;;12.95;4.20;;;18.80;99.90;;;;;;5072100;28;20193;-77
2022/12/05 15:34:17;;;;;;;10.75;4.18;;;18.80;99.90;;;;;;5069702;28;20197;-78
2022/12/05 15:36:53;;;;;;;10.68;3.35;;;18.80;99.90;;;;;;5068339;28;20192;-77
2022/12/05 15:39:27;;;;;;;12.40;3.67;;;18.80;99.90;;;;;;5064579;28;20207;-79
2022/12/05 15:41:58;;;;;;;11.98;3.15;;;18.80;99.90;;;;;;5063144;28;20197;-77
2022/12/05 15:44:32;;;;;;;7.45;3.00;;;18.70;99.90;;;;;;5069260;28;20217;-76
2022/12/05 15:47:03;;;;;;;6.97;2.55;;;18.60;99.90;;;;;;5070659;28;20279;-78
2022/12/05 15:49:34;;;;;;;9.55;2.97;;;18.60;99.90;;;;;;5062371;28;20201;-76
2022/12/05 15:52:17;;;;;;;9.45;3.00;;;18.60;99.90;;;;;;5072328;28;20583;-77
2022/12/05 15:54:49;;;;;;;7.10;2.88;;;18.60;99.90;;;;;;5066746;28;20722;-76
2022/12/05 15:57:24;;;;;;;10.32;2.95;;;18.60;99.90;;;;;;5068248;28;20197;-76
2022/12/05 16:00:01;;;;;;;9.88;3.17;;;18.60;99.90;;;;;;5070465;28;20648;-76
2022/12/05 16:02:47;;;;;;;9.85;3.20;;;18.60;99.90;;;;;;5069789;28;20728;-77
2022/12/05 16:05:23;;;;;;;12.82;3.20;;;18.60;99.90;;;;;;5060352;28;20201;-77
2022/12/05 16:07:56;;;;;;;10.43;3.20;;;18.60;99.90;;;;;;5068244;28;20566;-76
2022/12/05 16:10:27;;;;;;;18.42;4.32;;;18.60;99.90;;;;;;5067093;28;20310;-78
2022/12/05 16:13:03;;;;;;;16.70;3.63;;;18.60;99.90;;;;;;5069623;28;20203;-75
2022/12/05 16:15:34;;;;;;;17.58;3.95;;;18.60;99.90;;;;;;5067747;28;20199;-76
2022/12/05 16:18:07;;;;;;;14.73;3.90;;;18.60;99.90;;;;;;5069500;28;20670;-77
2022/12/05 16:20:39;;;;;;;13.40;4.10;;;18.60;99.90;;;;;;5067761;28;20236;-76
2022/12/05 16:23:27;;;;;;;15.05;3.88;;;18.50;99.90;;;;;;5067746;28;20739;-75
2022/12/05 16:26:21;;;;;;;10.77;3.65;;;18.50;99.90;;;;;;5067209;28;20196;-78
2022/12/05 16:29:00;;;;;;;13.75;3.90;;;18.40;99.90;;;;;;5071448;28;20193;-77
2022/12/05 16:31:33;;;;;;;18.20;4.40;;;18.40;99.90;;;;;;5060943;28;20189;-76
2022/12/05 16:34:08;;;;;;;15.85;4.53;;;18.40;99.90;;;;;;5062054;28;20238;-77
2022/12/05 16:36:47;;;;;;;14.63;4.22;;;18.40;99.90;;;;;;5066144;28;20566;-77
2022/12/05 16:39:21;;;;;;;13.35;4.43;;;18.30;99.90;;;;;;5063500;28;20242;-80
2022/12/05 16:41:53;;;;;;;12.13;5.00;;;18.30;99.90;;;;;;5066972;28;20185;-78
2022/12/05 16:45:04;;;;;;;14.27;4.60;;;18.20;99.90;;;;;;5059748;28;20584;-80
2022/12/05 16:47:57;;;;;;;20.08;4.53;;;18.20;99.90;;;;;;5062166;28;20204;-77
2022/12/05 16:50:37;;;;;;;14.23;4.80;;;18.20;99.90;;;;;;5065100;28;20187;-77
2022/12/05 16:53:23;;;;;;;15.38;4.90;;;18.20;99.90;;;;;;5065302;28;20208;-79
2022/12/05 16:55:56;;;;;;;12.77;4.85;;;18.20;99.90;;;;;;5066342;28;20192;-79
2022/12/05 16:58:29;;;;;;;16.73;4.93;;;18.10;99.90;;;;;;5064250;28;20739;-78
2022/12/05 17:01:04;;;;;;;16.30;4.97;;;18.10;99.90;;;;;;5066166;28;20197;-79
2022/12/05 17:03:36;;;;;;;14.30;5.50;;;18.10;99.90;;;;;;5066251;28;20212;-80
2022/12/05 17:06:07;;;;;;;16.42;5.25;;;18.00;99.90;;;;;;5064185;28;20189;-77
2022/12/05 17:08:38;;;;;;;15.20;5.05;;;18.00;99.90;;;;;;5067294;28;20240;-79
2022/12/05 17:11:16;;;;;;;19.63;4.78;;;18.10;99.90;;;;;;5067286;28;20285;-78
2022/12/05 17:13:48;;;;;;;11.98;4.95;;;18.00;99.90;;;;;;5068460;28;20204;-80
2022/12/05 17:16:19;;;;;;;15.02;4.63;;;18.00;99.90;;;;;;5062585;28;20215;-80
2022/12/05 17:18:50;;;;;;;16.77;5.05;;;18.00;99.90;;;;;;5068592;28;20189;-79
2022/12/05 17:21:24;;;;;;;12.43;4.55;;;18.00;99.90;;;;;;5068798;28;20239;-79
2022/12/05 17:23:55;;;;;;;14.88;4.82;;;18.00;99.90;;;;;;5068030;28;20559;-79